sensor_id;sensor_type;location;lat;lon;timestamp;temperature;humidity
3986;DHT22;2007;48.750;9.278;2022-10-16T00:01:35;19.20;57.10
3986;DHT22;2007;48.750;9.278;2022-10-16T00:04:04;19.20;57.10
3986;DHT22;2007;48.750;9.278;2022-10-16T00:06:33;19.20;57.10
3986;DHT22;2007;48.750;9.278;2022-10-16T00:09:00;19.20;57.10
3986;DHT22;2007;48.750;9.278;2022-10-16T00:11:30;19.20;57.10
3986;DHT22;2007;48.750;9.278;2022-10-16T00:14:01;19.20;57.10
3986;DHT22;2007;48.750;9.278;2022-10-16T00:16:29;19.20;57.10
3986;DHT22;2007;48.750;9.278;2022-10-16T00:18:58;19.20;57.10
3986;DHT22;2007;48.750;9.278;2022-10-16T00:21:29;19.20;57.10
3986;DHT22;2007;48.750;9.278;2022-10-16T00:23:59;19.20;57.10
3986;DHT22;2007;48.750;9.278;2022-10-16T00:26:29;19.20;57.10
3986;DHT22;2007;48.750;9.278;2022-10-16T00:28:57;19.20;57.10
3986;DHT22;2007;48.750;9.278;2022-10-16T00:31:25;19.20;57.10
3986;DHT22;2007;48.750;9.278;2022-10-16T00:33:53;19.20;57.10
3986;DHT22;2007;48.750;9.278;2022-10-16T00:36:23;19.20;57.10
3986;DHT22;2007;48.750;9.278;2022-10-16T00:38:54;19.20;57.10
3986;DHT22;2007;48.750;9.278;2022-10-16T00:41:24;19.20;57.10
3986;DHT22;2007;48.750;9.278;2022-10-16T00:43:53;19.20;57.10
3986;DHT22;2007;48.750;9.278;2022-10-16T00:46:23;19.20;57.10
3986;DHT22;2007;48.750;9.278;2022-10-16T00:48:59;19.20;57.10
3986;DHT22;2007;48.750;9.278;2022-10-16T00:51:31;19.20;57.10
3986;DHT22;2007;48.750;9.278;2022-10-16T00:54:02;19.20;57.10
3986;DHT22;2007;48.750;9.278;2022-10-16T00:56:32;19.20;57.10
3986;DHT22;2007;48.750;9.278;2022-10-16T00:59:05;19.20;57.10
3986;DHT22;2007;48.750;9.278;2022-10-16T01:01:35;19.20;57.10
3986;DHT22;2007;48.750;9.278;2022-10-16T01:04:03;19.30;57.20
3986;DHT22;2007;48.750;9.278;2022-10-16T01:06:37;19.20;57.10
3986;DHT22;2007;48.750;9.278;2022-10-16T01:09:17;19.20;57.10
3986;DHT22;2007;48.750;9.278;2022-10-16T01:11:55;19.30;57.20
3986;DHT22;2007;48.750;9.278;2022-10-16T01:14:29;19.20;57.70
3986;DHT22;2007;48.750;9.278;2022-10-16T01:17:04;19.20;57.10
3986;DHT22;2007;48.750;9.278;2022-10-16T01:19:45;19.20;57.10
3986;DHT22;2007;48.750;9.278;2022-10-16T01:22:18;19.20;57.10
3986;DHT22;2007;48.750;9.278;2022-10-16T01:24:49;19.20;57.10
3986;DHT22;2007;48.750;9.278;2022-10-16T01:27:21;19.30;57.20
3986;DHT22;2007;48.750;9.278;2022-10-16T01:29:54;19.20;57.10
3986;DHT22;2007;48.750;9.278;2022-10-16T01:32:31;19.30;57.20
3986;DHT22;2007;48.750;9.278;2022-10-16T01:35:04;19.20;57.10
3986;DHT22;2007;48.750;9.278;2022-10-16T01:37:37;19.20;57.10
3986;DHT22;2007;48.750;9.278;2022-10-16T01:40:09;19.20;57.10
3986;DHT22;2007;48.750;9.278;2022-10-16T01:42:41;19.30;57.20
3986;DHT22;2007;48.750;9.278;2022-10-16T01:45:12;19.30;57.20
3986;DHT22;2007;48.750;9.278;2022-10-16T01:47:41;19.20;57.10
3986;DHT22;2007;48.750;9.278;2022-10-16T01:50:12;19.20;57.10
3986;DHT22;2007;48.750;9.278;2022-10-16T01:52:44;19.20;57.10
3986;DHT22;2007;48.750;9.278;2022-10-16T01:55:17;19.30;57.20
3986;DHT22;2007;48.750;9.278;2022-10-16T01:57:49;19.30;57.20
3986;DHT22;2007;48.750;9.278;2022-10-16T02:00:19;19.30;57.20
3986;DHT22;2007;48.750;9.278;2022-10-16T02:02:50;19.20;57.10
3986;DHT22;2007;48.750;9.278;2022-10-16T02:05:25;19.20;57.10
3986;DHT22;2007;48.750;9.278;2022-10-16T02:07:54;19.30;57.20
3986;DHT22;2007;48.750;9.278;2022-10-16T02:10:24;19.20;57.10
3986;DHT22;2007;48.750;9.278;2022-10-16T02:12:57;19.30;57.20
3986;DHT22;2007;48.750;9.278;2022-10-16T02:15:27;19.30;57.20
3986;DHT22;2007;48.750;9.278;2022-10-16T02:17:54;19.30;57.20
3986;DHT22;2007;48.750;9.278;2022-10-16T02:20:26;19.30;57.20
3986;DHT22;2007;48.750;9.278;2022-10-16T02:22:56;19.30;57.20
3986;DHT22;2007;48.750;9.278;2022-10-16T02:25:28;19.30;57.20
3986;DHT22;2007;48.750;9.278;2022-10-16T02:28:02;19.20;57.10
3986;DHT22;2007;48.750;9.278;2022-10-16T02:30:34;19.20;57.10
3986;DHT22;2007;48.750;9.278;2022-10-16T02:33:06;19.30;57.20
3986;DHT22;2007;48.750;9.278;2022-10-16T02:35:35;19.20;57.10
3986;DHT22;2007;48.750;9.278;2022-10-16T02:38:04;19.20;57.10
3986;DHT22;2007;48.750;9.278;2022-10-16T02:40:33;19.30;57.20
3986;DHT22;2007;48.750;9.278;2022-10-16T02:43:04;19.30;57.20
3986;DHT22;2007;48.750;9.278;2022-10-16T02:45:32;19.30;57.20
3986;DHT22;2007;48.750;9.278;2022-10-16T02:48:00;19.20;57.10
3986;DHT22;2007;48.750;9.278;2022-10-16T02:50:28;19.30;57.20
3986;DHT22;2007;48.750;9.278;2022-10-16T02:52:56;19.30;57.20
3986;DHT22;2007;48.750;9.278;2022-10-16T02:55:24;19.30;57.20
3986;DHT22;2007;48.750;9.278;2022-10-16T02:57:52;19.30;57.20
3986;DHT22;2007;48.750;9.278;2022-10-16T03:00:21;19.20;57.10
3986;DHT22;2007;48.750;9.278;2022-10-16T03:02:49;19.30;57.20
3986;DHT22;2007;48.750;9.278;2022-10-16T03:05:17;19.30;57.20
3986;DHT22;2007;48.750;9.278;2022-10-16T03:07:45;19.30;57.20
3986;DHT22;2007;48.750;9.278;2022-10-16T03:10:13;19.30;57.20
3986;DHT22;2007;48.750;9.278;2022-10-16T03:12:41;19.30;57.20
3986;DHT22;2007;48.750;9.278;2022-10-16T03:15:09;19.30;57.20
3986;DHT22;2007;48.750;9.278;2022-10-16T03:17:39;19.20;57.10
3986;DHT22;2007;48.750;9.278;2022-10-16T03:20:07;19.30;57.20
3986;DHT22;2007;48.750;9.278;2022-10-16T03:22:35;19.30;57.20
3986;DHT22;2007;48.750;9.278;2022-10-16T03:25:03;19.30;57.20
3986;DHT22;2007;48.750;9.278;2022-10-16T03:27:31;19.30;57.20
3986;DHT22;2007;48.750;9.278;2022-10-16T03:29:59;19.30;57.20
3986;DHT22;2007;48.750;9.278;2022-10-16T03:32:27;19.20;57.10
3986;DHT22;2007;48.750;9.278;2022-10-16T03:34:56;19.30;57.20
3986;DHT22;2007;48.750;9.278;2022-10-16T03:37:24;19.30;57.20
3986;DHT22;2007;48.750;9.278;2022-10-16T03:39:53;19.30;57.20
3986;DHT22;2007;48.750;9.278;2022-10-16T03:42:21;19.20;57.10
3986;DHT22;2007;48.750;9.278;2022-10-16T03:44:49;19.30;57.20
3986;DHT22;2007;48.750;9.278;2022-10-16T03:47:17;19.30;57.20
3986;DHT22;2007;48.750;9.278;2022-10-16T03:49:48;19.30;57.20
3986;DHT22;2007;48.750;9.278;2022-10-16T03:52:17;19.30;57.20
3986;DHT22;2007;48.750;9.278;2022-10-16T03:54:50;19.30;57.20
3986;DHT22;2007;48.750;9.278;2022-10-16T03:57:18;19.20;57.10
3986;DHT22;2007;48.750;9.278;2022-10-16T03:59:47;19.30;57.20
3986;DHT22;2007;48.750;9.278;2022-10-16T04:02:15;19.30;57.20
3986;DHT22;2007;48.750;9.278;2022-10-16T04:04:42;19.30;57.20
3986;DHT22;2007;48.750;9.278;2022-10-16T04:07:10;19.30;57.20
3986;DHT22;2007;48.750;9.278;2022-10-16T04:09:39;19.30;57.20
3986;DHT22;2007;48.750;9.278;2022-10-16T04:12:08;19.20;57.10
3986;DHT22;2007;48.750;9.278;2022-10-16T04:14:36;19.30;57.20
3986;DHT22;2007;48.750;9.278;2022-10-16T04:17:04;19.30;57.20
3986;DHT22;2007;48.750;9.278;2022-10-16T04:19:32;19.30;57.20
3986;DHT22;2007;48.750;9.278;2022-10-16T04:21:59;19.30;57.20
3986;DHT22;2007;48.750;9.278;2022-10-16T04:24:27;19.30;57.20
3986;DHT22;2007;48.750;9.278;2022-10-16T04:26:56;19.30;57.20
3986;DHT22;2007;48.750;9.278;2022-10-16T04:29:24;19.30;57.20
3986;DHT22;2007;48.750;9.278;2022-10-16T04:31:52;19.30;57.20
3986;DHT22;2007;48.750;9.278;2022-10-16T04:34:20;19.30;57.20
3986;DHT22;2007;48.750;9.278;2022-10-16T04:36:48;19.30;57.20
3986;DHT22;2007;48.750;9.278;2022-10-16T04:39:17;19.20;57.10
3986;DHT22;2007;48.750;9.278;2022-10-16T04:41:45;19.30;57.20
3986;DHT22;2007;48.750;9.278;2022-10-16T04:44:14;19.30;57.20
3986;DHT22;2007;48.750;9.278;2022-10-16T04:46:42;19.30;57.20
3986;DHT22;2007;48.750;9.278;2022-10-16T04:49:10;19.30;57.20
3986;DHT22;2007;48.750;9.278;2022-10-16T04:51:38;19.30;57.50
3986;DHT22;2007;48.750;9.278;2022-10-16T04:54:06;19.30;57.20
3986;DHT22;2007;48.750;9.278;2022-10-16T04:56:34;19.30;57.20
3986;DHT22;2007;48.750;9.278;2022-10-16T04:59:09;19.20;57.10
3986;DHT22;2007;48.750;9.278;2022-10-16T05:01:39;19.30;57.20
3986;DHT22;2007;48.750;9.278;2022-10-16T05:04:07;19.20;57.10
3986;DHT22;2007;48.750;9.278;2022-10-16T05:06:35;19.30;57.20
3986;DHT22;2007;48.750;9.278;2022-10-16T05:09:03;19.20;57.10
3986;DHT22;2007;48.750;9.278;2022-10-16T05:11:31;19.30;57.20
3986;DHT22;2007;48.750;9.278;2022-10-16T05:13:59;19.30;57.20
3986;DHT22;2007;48.750;9.278;2022-10-16T05:16:28;19.30;57.20
3986;DHT22;2007;48.750;9.278;2022-10-16T05:18:58;19.20;57.10
3986;DHT22;2007;48.750;9.278;2022-10-16T05:21:46;19.20;57.10
3986;DHT22;2007;48.750;9.278;2022-10-16T05:24:14;19.20;57.10
3986;DHT22;2007;48.750;9.278;2022-10-16T05:26:41;19.30;57.20
3986;DHT22;2007;48.750;9.278;2022-10-16T05:29:09;19.30;57.20
3986;DHT22;2007;48.750;9.278;2022-10-16T05:31:37;19.20;57.10
3986;DHT22;2007;48.750;9.278;2022-10-16T05:34:06;19.20;57.20
3986;DHT22;2007;48.750;9.278;2022-10-16T05:36:34;19.20;57.10
3986;DHT22;2007;48.750;9.278;2022-10-16T05:39:03;19.30;57.20
3986;DHT22;2007;48.750;9.278;2022-10-16T05:41:31;19.30;57.20
3986;DHT22;2007;48.750;9.278;2022-10-16T05:43:58;19.20;57.10
3986;DHT22;2007;48.750;9.278;2022-10-16T05:46:26;19.20;57.10
3986;DHT22;2007;48.750;9.278;2022-10-16T05:48:54;19.30;57.20
3986;DHT22;2007;48.750;9.278;2022-10-16T05:51:23;19.20;57.10
3986;DHT22;2007;48.750;9.278;2022-10-16T05:53:52;19.20;57.70
3986;DHT22;2007;48.750;9.278;2022-10-16T05:56:20;19.20;57.10
3986;DHT22;2007;48.750;9.278;2022-10-16T05:58:48;19.30;57.20
3986;DHT22;2007;48.750;9.278;2022-10-16T06:01:17;19.30;57.20
3986;DHT22;2007;48.750;9.278;2022-10-16T06:03:45;19.20;57.10
3986;DHT22;2007;48.750;9.278;2022-10-16T06:06:14;19.30;57.20
3986;DHT22;2007;48.750;9.278;2022-10-16T06:08:44;19.20;57.10
3986;DHT22;2007;48.750;9.278;2022-10-16T06:11:14;19.20;57.10
3986;DHT22;2007;48.750;9.278;2022-10-16T06:13:43;19.20;57.10
3986;DHT22;2007;48.750;9.278;2022-10-16T06:16:13;19.20;57.10
3986;DHT22;2007;48.750;9.278;2022-10-16T06:18:40;19.20;57.10
3986;DHT22;2007;48.750;9.278;2022-10-16T06:21:09;19.20;57.10
3986;DHT22;2007;48.750;9.278;2022-10-16T06:23:37;19.30;57.20
3986;DHT22;2007;48.750;9.278;2022-10-16T06:26:08;19.20;57.10
3986;DHT22;2007;48.750;9.278;2022-10-16T06:28:37;19.20;57.10
3986;DHT22;2007;48.750;9.278;2022-10-16T06:31:06;19.20;57.10
3986;DHT22;2007;48.750;9.278;2022-10-16T06:33:35;19.30;57.20
3986;DHT22;2007;48.750;9.278;2022-10-16T06:36:05;19.20;57.10
3986;DHT22;2007;48.750;9.278;2022-10-16T06:38:33;19.20;57.10
3986;DHT22;2007;48.750;9.278;2022-10-16T06:41:02;19.20;57.10
3986;DHT22;2007;48.750;9.278;2022-10-16T06:43:32;19.20;57.10
3986;DHT22;2007;48.750;9.278;2022-10-16T06:46:03;19.20;57.10
3986;DHT22;2007;48.750;9.278;2022-10-16T06:48:31;19.20;57.10
3986;DHT22;2007;48.750;9.278;2022-10-16T06:51:00;19.30;57.20
3986;DHT22;2007;48.750;9.278;2022-10-16T06:53:30;19.20;57.10
3986;DHT22;2007;48.750;9.278;2022-10-16T06:56:09;19.20;57.10
3986;DHT22;2007;48.750;9.278;2022-10-16T06:58:39;19.20;57.10
3986;DHT22;2007;48.750;9.278;2022-10-16T07:01:07;19.30;57.20
3986;DHT22;2007;48.750;9.278;2022-10-16T07:03:36;19.20;57.10
3986;DHT22;2007;48.750;9.278;2022-10-16T07:06:05;19.20;57.10
3986;DHT22;2007;48.750;9.278;2022-10-16T07:08:33;19.20;57.10
3986;DHT22;2007;48.750;9.278;2022-10-16T07:11:03;19.20;57.10
3986;DHT22;2007;48.750;9.278;2022-10-16T07:13:33;19.20;57.10
3986;DHT22;2007;48.750;9.278;2022-10-16T07:16:05;19.20;57.10
3986;DHT22;2007;48.750;9.278;2022-10-16T07:18:34;19.20;57.10
3986;DHT22;2007;48.750;9.278;2022-10-16T07:21:05;19.20;57.10
3986;DHT22;2007;48.750;9.278;2022-10-16T07:23:33;19.20;57.20
3986;DHT22;2007;48.750;9.278;2022-10-16T07:26:02;19.20;57.10
3986;DHT22;2007;48.750;9.278;2022-10-16T07:28:30;19.20;57.10
3986;DHT22;2007;48.750;9.278;2022-10-16T07:31:00;19.20;57.10
3986;DHT22;2007;48.750;9.278;2022-10-16T07:33:30;19.20;57.10
3986;DHT22;2007;48.750;9.278;2022-10-16T07:35:58;19.20;57.20
3986;DHT22;2007;48.750;9.278;2022-10-16T07:38:26;19.20;57.20
3986;DHT22;2007;48.750;9.278;2022-10-16T07:40:57;19.20;57.10
3986;DHT22;2007;48.750;9.278;2022-10-16T07:43:26;19.20;57.20
3986;DHT22;2007;48.750;9.278;2022-10-16T07:45:54;19.20;57.10
3986;DHT22;2007;48.750;9.278;2022-10-16T07:48:28;19.20;57.20
3986;DHT22;2007;48.750;9.278;2022-10-16T07:50:58;19.20;57.10
3986;DHT22;2007;48.750;9.278;2022-10-16T07:53:27;19.20;57.10
3986;DHT22;2007;48.750;9.278;2022-10-16T07:55:57;19.20;57.10
3986;DHT22;2007;48.750;9.278;2022-10-16T07:58:26;19.20;57.10
3986;DHT22;2007;48.750;9.278;2022-10-16T08:00:54;19.20;57.10
3986;DHT22;2007;48.750;9.278;2022-10-16T08:03:22;19.20;57.80
3986;DHT22;2007;48.750;9.278;2022-10-16T08:05:50;19.20;57.20
3986;DHT22;2007;48.750;9.278;2022-10-16T08:08:20;19.20;57.10
3986;DHT22;2007;48.750;9.278;2022-10-16T08:10:48;19.20;57.20
3986;DHT22;2007;48.750;9.278;2022-10-16T08:13:16;19.20;57.10
3986;DHT22;2007;48.750;9.278;2022-10-16T08:15:44;19.20;57.20
3986;DHT22;2007;48.750;9.278;2022-10-16T08:18:14;19.20;57.20
3986;DHT22;2007;48.750;9.278;2022-10-16T08:20:42;19.20;57.10
3986;DHT22;2007;48.750;9.278;2022-10-16T08:23:11;19.20;57.20
3986;DHT22;2007;48.750;9.278;2022-10-16T08:25:41;19.20;57.10
3986;DHT22;2007;48.750;9.278;2022-10-16T08:28:10;19.20;57.20
3986;DHT22;2007;48.750;9.278;2022-10-16T08:30:38;19.20;57.20
3986;DHT22;2007;48.750;9.278;2022-10-16T08:33:06;19.20;57.80
3986;DHT22;2007;48.750;9.278;2022-10-16T08:35:34;19.20;57.20
3986;DHT22;2007;48.750;9.278;2022-10-16T08:38:03;19.20;57.20
3986;DHT22;2007;48.750;9.278;2022-10-16T08:40:32;19.20;57.20
3986;DHT22;2007;48.750;9.278;2022-10-16T08:43:17;19.20;57.20
3986;DHT22;2007;48.750;9.278;2022-10-16T08:46:06;19.20;57.20
3986;DHT22;2007;48.750;9.278;2022-10-16T08:48:45;19.20;57.20
3986;DHT22;2007;48.750;9.278;2022-10-16T08:51:19;19.20;57.20
3986;DHT22;2007;48.750;9.278;2022-10-16T08:53:51;19.20;57.20
3986;DHT22;2007;48.750;9.278;2022-10-16T08:56:19;19.20;57.20
3986;DHT22;2007;48.750;9.278;2022-10-16T08:58:49;19.20;57.20
3986;DHT22;2007;48.750;9.278;2022-10-16T09:01:28;19.20;57.20
3986;DHT22;2007;48.750;9.278;2022-10-16T09:04:14;19.20;57.20
3986;DHT22;2007;48.750;9.278;2022-10-16T09:06:50;19.20;57.20
3986;DHT22;2007;48.750;9.278;2022-10-16T09:09:41;19.20;57.20
3986;DHT22;2007;48.750;9.278;2022-10-16T09:12:20;19.20;57.20
3986;DHT22;2007;48.750;9.278;2022-10-16T09:14:58;19.20;57.20
3986;DHT22;2007;48.750;9.278;2022-10-16T09:17:39;19.20;57.20
3986;DHT22;2007;48.750;9.278;2022-10-16T09:20:20;19.20;57.20
3986;DHT22;2007;48.750;9.278;2022-10-16T09:22:53;19.20;57.20
3986;DHT22;2007;48.750;9.278;2022-10-16T09:25:22;19.20;57.20
3986;DHT22;2007;48.750;9.278;2022-10-16T09:27:53;19.20;57.20
3986;DHT22;2007;48.750;9.278;2022-10-16T09:30:23;19.20;57.20
3986;DHT22;2007;48.750;9.278;2022-10-16T09:32:55;19.20;57.20
3986;DHT22;2007;48.750;9.278;2022-10-16T09:35:31;19.20;57.20
3986;DHT22;2007;48.750;9.278;2022-10-16T09:38:00;19.20;57.20
3986;DHT22;2007;48.750;9.278;2022-10-16T09:40:30;19.20;57.20
3986;DHT22;2007;48.750;9.278;2022-10-16T09:43:05;19.20;57.20
3986;DHT22;2007;48.750;9.278;2022-10-16T09:45:35;19.20;57.20
3986;DHT22;2007;48.750;9.278;2022-10-16T09:48:10;19.20;57.20
3986;DHT22;2007;48.750;9.278;2022-10-16T09:50:39;19.20;57.20
3986;DHT22;2007;48.750;9.278;2022-10-16T09:53:11;19.20;57.20
3986;DHT22;2007;48.750;9.278;2022-10-16T09:55:48;19.20;57.20
3986;DHT22;2007;48.750;9.278;2022-10-16T09:58:16;19.20;57.20
3986;DHT22;2007;48.750;9.278;2022-10-16T10:00:52;19.20;57.20
3986;DHT22;2007;48.750;9.278;2022-10-16T10:03:34;19.20;57.20
3986;DHT22;2007;48.750;9.278;2022-10-16T10:06:14;19.20;57.20
3986;DHT22;2007;48.750;9.278;2022-10-16T10:08:58;19.20;57.20
3986;DHT22;2007;48.750;9.278;2022-10-16T10:11:44;19.20;57.20
3986;DHT22;2007;48.750;9.278;2022-10-16T10:14:21;19.20;57.20
3986;DHT22;2007;48.750;9.278;2022-10-16T10:16:52;19.30;57.30
3986;DHT22;2007;48.750;9.278;2022-10-16T10:19:22;19.20;57.20
3986;DHT22;2007;48.750;9.278;2022-10-16T10:21:56;19.20;57.20
3986;DHT22;2007;48.750;9.278;2022-10-16T10:24:24;19.20;57.20
3986;DHT22;2007;48.750;9.278;2022-10-16T10:26:57;19.20;57.20
3986;DHT22;2007;48.750;9.278;2022-10-16T10:29:37;19.30;57.30
3986;DHT22;2007;48.750;9.278;2022-10-16T10:32:21;19.30;57.30
3986;DHT22;2007;48.750;9.278;2022-10-16T10:35:07;19.30;57.30
3986;DHT22;2007;48.750;9.278;2022-10-16T10:38:00;19.30;57.30
3986;DHT22;2007;48.750;9.278;2022-10-16T10:40:40;19.20;57.20
3986;DHT22;2007;48.750;9.278;2022-10-16T10:43:19;19.30;57.30
3986;DHT22;2007;48.750;9.278;2022-10-16T10:45:53;19.20;57.20
3986;DHT22;2007;48.750;9.278;2022-10-16T10:48:41;19.30;57.30
3986;DHT22;2007;48.750;9.278;2022-10-16T10:51:20;19.30;57.30
3986;DHT22;2007;48.750;9.278;2022-10-16T10:53:59;19.30;57.30
3986;DHT22;2007;48.750;9.278;2022-10-16T10:56:45;19.30;57.30
3986;DHT22;2007;48.750;9.278;2022-10-16T10:59:43;19.30;57.30
3986;DHT22;2007;48.750;9.278;2022-10-16T11:02:18;19.30;57.30
3986;DHT22;2007;48.750;9.278;2022-10-16T11:07:59;19.30;57.40
3986;DHT22;2007;48.750;9.278;2022-10-16T11:10:30;19.30;57.30
3986;DHT22;2007;48.750;9.278;2022-10-16T11:13:08;19.30;57.30
3986;DHT22;2007;48.750;9.278;2022-10-16T11:15:39;19.30;57.30
3986;DHT22;2007;48.750;9.278;2022-10-16T11:18:11;19.30;57.40
3986;DHT22;2007;48.750;9.278;2022-10-16T11:20:44;19.30;57.40
3986;DHT22;2007;48.750;9.278;2022-10-16T11:23:18;19.30;58.00
3986;DHT22;2007;48.750;9.278;2022-10-16T11:25:49;19.30;57.40
3986;DHT22;2007;48.750;9.278;2022-10-16T11:28:20;19.30;57.40
3986;DHT22;2007;48.750;9.278;2022-10-16T11:30:57;19.30;57.40
3986;DHT22;2007;48.750;9.278;2022-10-16T11:33:32;19.30;57.40
3986;DHT22;2007;48.750;9.278;2022-10-16T11:36:08;19.30;57.50
3986;DHT22;2007;48.750;9.278;2022-10-16T11:38:43;19.30;57.50
3986;DHT22;2007;48.750;9.278;2022-10-16T11:41:20;19.30;57.50
3986;DHT22;2007;48.750;9.278;2022-10-16T11:43:57;19.30;57.40
3986;DHT22;2007;48.750;9.278;2022-10-16T11:46:28;19.30;57.40
3986;DHT22;2007;48.750;9.278;2022-10-16T11:49:06;19.30;57.40
3986;DHT22;2007;48.750;9.278;2022-10-16T11:51:38;19.30;57.50
3986;DHT22;2007;48.750;9.278;2022-10-16T11:54:16;19.30;57.50
3986;DHT22;2007;48.750;9.278;2022-10-16T11:56:50;19.30;57.40
3986;DHT22;2007;48.750;9.278;2022-10-16T11:59:25;19.30;57.40
3986;DHT22;2007;48.750;9.278;2022-10-16T12:02:17;19.30;58.10
3986;DHT22;2007;48.750;9.278;2022-10-16T12:04:55;19.30;57.50
3986;DHT22;2007;48.750;9.278;2022-10-16T12:07:33;19.30;57.40
3986;DHT22;2007;48.750;9.278;2022-10-16T12:10:17;19.30;57.50
3986;DHT22;2007;48.750;9.278;2022-10-16T12:12:53;19.30;57.50
3986;DHT22;2007;48.750;9.278;2022-10-16T12:15:25;19.30;57.40
3986;DHT22;2007;48.750;9.278;2022-10-16T12:18:21;19.30;57.50
3986;DHT22;2007;48.750;9.278;2022-10-16T12:20:55;19.30;57.40
3986;DHT22;2007;48.750;9.278;2022-10-16T12:23:27;19.30;57.50
3986;DHT22;2007;48.750;9.278;2022-10-16T12:25:58;19.30;57.50
3986;DHT22;2007;48.750;9.278;2022-10-16T12:28:27;19.30;57.50
3986;DHT22;2007;48.750;9.278;2022-10-16T12:30:58;19.30;57.50
3986;DHT22;2007;48.750;9.278;2022-10-16T12:33:28;19.30;57.50
3986;DHT22;2007;48.750;9.278;2022-10-16T12:35:57;19.30;57.40
3986;DHT22;2007;48.750;9.278;2022-10-16T12:38:27;19.30;57.40
3986;DHT22;2007;48.750;9.278;2022-10-16T12:40:59;19.30;57.40
3986;DHT22;2007;48.750;9.278;2022-10-16T12:43:36;19.30;57.50
3986;DHT22;2007;48.750;9.278;2022-10-16T12:46:20;19.30;57.50
3986;DHT22;2007;48.750;9.278;2022-10-16T12:48:49;19.40;57.60
3986;DHT22;2007;48.750;9.278;2022-10-16T12:51:35;19.40;57.60
3986;DHT22;2007;48.750;9.278;2022-10-16T12:54:09;19.40;57.60
3986;DHT22;2007;48.750;9.278;2022-10-16T12:56:54;19.40;57.60
3986;DHT22;2007;48.750;9.278;2022-10-16T12:59:32;19.40;57.50
3986;DHT22;2007;48.750;9.278;2022-10-16T13:02:19;19.30;57.40
3986;DHT22;2007;48.750;9.278;2022-10-16T13:05:08;19.40;57.50
3986;DHT22;2007;48.750;9.278;2022-10-16T13:07:48;19.40;57.50
3986;DHT22;2007;48.750;9.278;2022-10-16T13:10:25;19.40;57.50
3986;DHT22;2007;48.750;9.278;2022-10-16T13:13:18;19.40;57.50
3986;DHT22;2007;48.750;9.278;2022-10-16T13:15:58;19.40;57.50
3986;DHT22;2007;48.750;9.278;2022-10-16T13:18:33;19.40;57.50
3986;DHT22;2007;48.750;9.278;2022-10-16T13:21:18;19.40;57.50
3986;DHT22;2007;48.750;9.278;2022-10-16T13:23:52;19.40;57.50
3986;DHT22;2007;48.750;9.278;2022-10-16T13:26:29;19.40;57.50
3986;DHT22;2007;48.750;9.278;2022-10-16T13:29:00;19.40;57.50
3986;DHT22;2007;48.750;9.278;2022-10-16T13:31:30;19.40;57.50
3986;DHT22;2007;48.750;9.278;2022-10-16T13:33:59;19.40;57.50
3986;DHT22;2007;48.750;9.278;2022-10-16T13:36:29;19.40;57.50
3986;DHT22;2007;48.750;9.278;2022-10-16T13:39:01;19.40;58.10
3986;DHT22;2007;48.750;9.278;2022-10-16T13:41:32;19.40;57.50
3986;DHT22;2007;48.750;9.278;2022-10-16T13:44:01;19.40;57.50
3986;DHT22;2007;48.750;9.278;2022-10-16T13:46:29;19.40;57.50
3986;DHT22;2007;48.750;9.278;2022-10-16T13:49:02;19.40;57.40
3986;DHT22;2007;48.750;9.278;2022-10-16T13:51:32;19.40;57.40
3986;DHT22;2007;48.750;9.278;2022-10-16T13:54:00;19.40;57.50
3986;DHT22;2007;48.750;9.278;2022-10-16T13:56:30;19.40;57.40
3986;DHT22;2007;48.750;9.278;2022-10-16T13:58:58;19.40;57.50
3986;DHT22;2007;48.750;9.278;2022-10-16T14:01:29;19.40;57.50
3986;DHT22;2007;48.750;9.278;2022-10-16T14:04:04;19.40;57.50
3986;DHT22;2007;48.750;9.278;2022-10-16T14:06:33;19.40;57.50
3986;DHT22;2007;48.750;9.278;2022-10-16T14:09:06;19.40;57.50
3986;DHT22;2007;48.750;9.278;2022-10-16T14:11:43;19.40;57.40
3986;DHT22;2007;48.750;9.278;2022-10-16T14:14:12;19.40;57.50
3986;DHT22;2007;48.750;9.278;2022-10-16T14:16:43;19.40;57.50
3986;DHT22;2007;48.750;9.278;2022-10-16T14:19:17;19.40;57.50
3986;DHT22;2007;48.750;9.278;2022-10-16T14:21:46;19.40;57.40
3986;DHT22;2007;48.750;9.278;2022-10-16T14:24:24;19.40;57.50
3986;DHT22;2007;48.750;9.278;2022-10-16T14:26:53;19.40;57.40
3986;DHT22;2007;48.750;9.278;2022-10-16T14:29:24;19.40;57.40
3986;DHT22;2007;48.750;9.278;2022-10-16T14:31:57;19.40;57.40
3986;DHT22;2007;48.750;9.278;2022-10-16T14:34:28;19.40;57.40
3986;DHT22;2007;48.750;9.278;2022-10-16T14:36:59;19.50;57.50
3986;DHT22;2007;48.750;9.278;2022-10-16T14:39:31;19.50;57.50
3986;DHT22;2007;48.750;9.278;2022-10-16T14:41:59;19.50;57.50
3986;DHT22;2007;48.750;9.278;2022-10-16T14:44:29;19.50;57.50
3986;DHT22;2007;48.750;9.278;2022-10-16T14:47:07;19.50;57.50
3986;DHT22;2007;48.750;9.278;2022-10-16T14:49:35;19.50;57.50
3986;DHT22;2007;48.750;9.278;2022-10-16T14:52:08;19.50;57.50
3986;DHT22;2007;48.750;9.278;2022-10-16T14:54:36;19.50;57.50
3986;DHT22;2007;48.750;9.278;2022-10-16T14:57:04;19.50;57.50
3986;DHT22;2007;48.750;9.278;2022-10-16T14:59:34;19.50;57.50
3986;DHT22;2007;48.750;9.278;2022-10-16T15:02:18;19.50;57.50
3986;DHT22;2007;48.750;9.278;2022-10-16T15:04:46;19.50;57.50
3986;DHT22;2007;48.750;9.278;2022-10-16T15:07:14;19.50;57.50
3986;DHT22;2007;48.750;9.278;2022-10-16T15:09:42;19.50;57.50
3986;DHT22;2007;48.750;9.278;2022-10-16T15:12:15;19.50;57.50
3986;DHT22;2007;48.750;9.278;2022-10-16T15:14:43;19.50;57.60
3986;DHT22;2007;48.750;9.278;2022-10-16T15:17:12;19.50;57.60
3986;DHT22;2007;48.750;9.278;2022-10-16T15:19:45;19.50;57.60
3986;DHT22;2007;48.750;9.278;2022-10-16T15:22:13;19.50;57.60
3986;DHT22;2007;48.750;9.278;2022-10-16T15:24:41;19.50;57.60
3986;DHT22;2007;48.750;9.278;2022-10-16T15:27:09;19.50;57.50
3986;DHT22;2007;48.750;9.278;2022-10-16T15:29:37;19.50;57.50
3986;DHT22;2007;48.750;9.278;2022-10-16T15:32:05;19.50;57.50
3986;DHT22;2007;48.750;9.278;2022-10-16T15:34:34;19.50;57.50
3986;DHT22;2007;48.750;9.278;2022-10-16T15:37:02;19.50;57.50
3986;DHT22;2007;48.750;9.278;2022-10-16T15:39:30;19.50;57.50
3986;DHT22;2007;48.750;9.278;2022-10-16T15:42:03;19.50;57.50
3986;DHT22;2007;48.750;9.278;2022-10-16T15:44:32;19.50;57.50
3986;DHT22;2007;48.750;9.278;2022-10-16T15:47:00;19.50;57.50
3986;DHT22;2007;48.750;9.278;2022-10-16T15:49:28;19.50;57.50
3986;DHT22;2007;48.750;9.278;2022-10-16T15:51:57;19.50;57.50
3986;DHT22;2007;48.750;9.278;2022-10-16T15:54:25;19.50;57.50
3986;DHT22;2007;48.750;9.278;2022-10-16T15:56:53;19.50;57.50
3986;DHT22;2007;48.750;9.278;2022-10-16T15:59:20;19.50;57.50
3986;DHT22;2007;48.750;9.278;2022-10-16T16:01:48;19.50;57.50
3986;DHT22;2007;48.750;9.278;2022-10-16T16:04:16;19.50;57.50
3986;DHT22;2007;48.750;9.278;2022-10-16T16:07:06;19.50;57.40
3986;DHT22;2007;48.750;9.278;2022-10-16T16:09:34;19.50;57.40
3986;DHT22;2007;48.750;9.278;2022-10-16T16:12:02;19.50;57.40
3986;DHT22;2007;48.750;9.278;2022-10-16T16:14:30;19.60;57.50
3986;DHT22;2007;48.750;9.278;2022-10-16T16:16:58;19.50;57.40
3986;DHT22;2007;48.750;9.278;2022-10-16T16:19:26;19.50;57.40
3986;DHT22;2007;48.750;9.278;2022-10-16T16:21:54;19.60;57.50
3986;DHT22;2007;48.750;9.278;2022-10-16T16:24:23;19.60;57.50
3986;DHT22;2007;48.750;9.278;2022-10-16T16:26:51;19.60;57.40
3986;DHT22;2007;48.750;9.278;2022-10-16T16:29:19;19.60;57.40
3986;DHT22;2007;48.750;9.278;2022-10-16T16:31:47;19.60;57.40
3986;DHT22;2007;48.750;9.278;2022-10-16T16:34:15;19.60;57.40